sensor_id;sensor_type;location;lat;lon;timestamp;pressure;altitude;pressure_sealevel;temperature;humidity
55301;BME280;58302;51.446;-2.000;2023-03-01T00:02:19;102377.44;;;3.89;100.00
55301;BME280;58302;51.446;-2.000;2023-03-01T00:04:45;102370.75;;;3.85;100.00
55301;BME280;58302;51.446;-2.000;2023-03-01T00:07:11;102366.91;;;3.80;100.00
55301;BME280;58302;51.446;-2.000;2023-03-01T00:09:37;102355.00;;;3.74;100.00
55301;BME280;58302;51.446;-2.000;2023-03-01T00:12:03;102356.34;;;3.70;100.00
55301;BME280;58302;51.446;-2.000;2023-03-01T00:14:29;102348.44;;;3.68;100.00
55301;BME280;58302;51.446;-2.000;2023-03-01T00:16:55;102354.66;;;3.69;100.00
55301;BME280;58302;51.446;-2.000;2023-03-01T00:19:21;102347.94;;;3.65;100.00
55301;BME280;58302;51.446;-2.000;2023-03-01T00:21:47;102349.63;;;3.66;100.00
55301;BME280;58302;51.446;-2.000;2023-03-01T00:24:13;102351.81;;;3.62;100.00
55301;BME280;58302;51.446;-2.000;2023-03-01T00:26:39;102355.69;;;3.60;100.00
55301;BME280;58302;51.446;-2.000;2023-03-01T00:29:05;102352.34;;;3.58;100.00
55301;BME280;58302;51.446;-2.000;2023-03-01T00:31:31;102350.81;;;3.55;100.00
55301;BME280;58302;51.446;-2.000;2023-03-01T00:33:58;102353.19;;;3.58;100.00
55301;BME280;58302;51.446;-2.000;2023-03-01T00:36:25;102348.81;;;3.57;100.00
55301;BME280;58302;51.446;-2.000;2023-03-01T00:38:51;102351.66;;;3.56;100.00
55301;BME280;58302;51.446;-2.000;2023-03-01T00:41:18;102344.63;;;3.55;100.00
55301;BME280;58302;51.446;-2.000;2023-03-01T00:43:44;102343.97;;;3.53;100.00
55301;BME280;58302;51.446;-2.000;2023-03-01T00:46:14;102339.28;;;3.47;100.00
55301;BME280;58302;51.446;-2.000;2023-03-01T00:48:41;102340.13;;;3.39;100.00
55301;BME280;58302;51.446;-2.000;2023-03-01T00:53:38;102343.16;;;3.36;100.00
55301;BME280;58302;51.446;-2.000;2023-03-01T00:56:05;102340.13;;;3.39;100.00
55301;BME280;58302;51.446;-2.000;2023-03-01T00:58:31;102335.44;;;3.41;100.00
55301;BME280;58302;51.446;-2.000;2023-03-01T01:00:57;102342.47;;;3.42;100.00
55301;BME280;58302;51.446;-2.000;2023-03-01T01:03:23;102333.72;;;3.40;100.00
55301;BME280;58302;51.446;-2.000;2023-03-01T01:05:50;102334.91;;;3.37;100.00
55301;BME280;58302;51.446;-2.000;2023-03-01T01:08:17;102337.09;;;3.34;100.00
55301;BME280;58302;51.446;-2.000;2023-03-01T01:10:43;102336.44;;;3.32;100.00
55301;BME280;58302;51.446;-2.000;2023-03-01T01:13:09;102332.59;;;3.26;100.00
55301;BME280;58302;51.446;-2.000;2023-03-01T01:15:35;102338.66;;;3.20;100.00
55301;BME280;58302;51.446;-2.000;2023-03-01T01:18:01;102351.75;;;3.15;100.00
55301;BME280;58302;51.446;-2.000;2023-03-01T01:20:27;102341.31;;;3.12;100.00
55301;BME280;58302;51.446;-2.000;2023-03-01T01:22:53;102342.84;;;3.06;100.00
55301;BME280;58302;51.446;-2.000;2023-03-01T01:25:18;102343.69;;;3.07;100.00
55301;BME280;58302;51.446;-2.000;2023-03-01T01:27:44;102338.66;;;3.04;100.00
55301;BME280;58302;51.446;-2.000;2023-03-01T01:30:10;102346.72;;;2.96;100.00
55301;BME280;58302;51.446;-2.000;2023-03-01T01:32:36;102340.84;;;2.92;100.00
55301;BME280;58302;51.446;-2.000;2023-03-01T01:35:02;102348.91;;;2.84;100.00
55301;BME280;58302;51.446;-2.000;2023-03-01T01:37:27;102337.31;;;2.83;100.00
55301;BME280;58302;51.446;-2.000;2023-03-01T01:39:57;102336.81;;;2.80;100.00
55301;BME280;58302;51.446;-2.000;2023-03-01T01:42:23;102342.69;;;2.75;100.00
55301;BME280;58302;51.446;-2.000;2023-03-01T01:45:15;102337.47;;;2.74;100.00
55301;BME280;58302;51.446;-2.000;2023-03-01T01:47:34;102340.66;;;2.69;100.00
55301;BME280;58302;51.446;-2.000;2023-03-01T01:50:00;102347.56;;;2.72;100.00
55301;BME280;58302;51.446;-2.000;2023-03-01T01:52:27;102341.00;;;2.74;100.00
55301;BME280;58302;51.446;-2.000;2023-03-01T01:55:00;102324.56;;;2.69;100.00
55301;BME280;58302;51.446;-2.000;2023-03-01T02:00:11;102313.50;;;2.64;100.00
55301;BME280;58302;51.446;-2.000;2023-03-01T02:02:37;102312.00;;;2.70;100.00
55301;BME280;58302;51.446;-2.000;2023-03-01T02:07:50;102315.31;;;2.63;100.00
55301;BME280;58302;51.446;-2.000;2023-03-01T02:10:16;102307.78;;;2.59;100.00
55301;BME280;58302;51.446;-2.000;2023-03-01T02:12:42;102308.13;;;2.56;100.00
55301;BME280;58302;51.446;-2.000;2023-03-01T02:15:08;102306.44;;;2.55;100.00
55301;BME280;58302;51.446;-2.000;2023-03-01T02:17:34;102301.06;;;2.55;100.00
55301;BME280;58302;51.446;-2.000;2023-03-01T02:22:27;102296.38;;;2.49;100.00
55301;BME280;58302;51.446;-2.000;2023-03-01T02:25:21;102292.50;;;2.43;100.00
55301;BME280;58302;51.446;-2.000;2023-03-01T02:30:39;102281.28;;;2.31;100.00
55301;BME280;58302;51.446;-2.000;2023-03-01T02:33:26;102280.94;;;2.26;100.00
55301;BME280;58302;51.446;-2.000;2023-03-01T02:35:52;102280.41;;;2.23;100.00
55301;BME280;58302;51.446;-2.000;2023-03-01T02:38:19;102279.22;;;2.17;100.00
55301;BME280;58302;51.446;-2.000;2023-03-01T02:40:46;102282.22;;;2.14;100.00
55301;BME280;58302;51.446;-2.000;2023-03-01T02:43:12;102282.41;;;2.13;100.00
55301;BME280;58302;51.446;-2.000;2023-03-01T02:45:42;102271.34;;;2.16;100.00
55301;BME280;58302;51.446;-2.000;2023-03-01T02:48:08;102276.84;;;2.14;100.00
55301;BME280;58302;51.446;-2.000;2023-03-01T02:50:42;102278.69;;;2.05;100.00
55301;BME280;58302;51.446;-2.000;2023-03-01T02:53:11;102282.69;;;1.93;100.00
55301;BME280;58302;51.446;-2.000;2023-03-01T02:55:40;102278.97;;;1.86;100.00
55301;BME280;58302;51.446;-2.000;2023-03-01T02:58:06;102275.75;;;1.74;100.00
55301;BME280;58302;51.446;-2.000;2023-03-01T03:00:34;102277.06;;;1.70;100.00
55301;BME280;58302;51.446;-2.000;2023-03-01T03:03:01;102277.06;;;1.62;100.00
55301;BME280;58302;51.446;-2.000;2023-03-01T03:05:28;102265.44;;;1.53;100.00
55301;BME280;58302;51.446;-2.000;2023-03-01T03:07:54;102268.63;;;1.49;100.00
55301;BME280;58302;51.446;-2.000;2023-03-01T03:10:22;102267.44;;;1.43;100.00
55301;BME280;58302;51.446;-2.000;2023-03-01T03:12:55;102265.22;;;1.39;100.00
55301;BME280;58302;51.446;-2.000;2023-03-01T03:15:21;102261.75;;;1.46;100.00
55301;BME280;58302;51.446;-2.000;2023-03-01T03:17:47;102267.03;;;1.72;100.00
55301;BME280;58302;51.446;-2.000;2023-03-01T03:20:14;102257.38;;;1.88;100.00
55301;BME280;58302;51.446;-2.000;2023-03-01T03:22:44;102248.34;;;1.97;100.00
55301;BME280;58302;51.446;-2.000;2023-03-01T03:25:10;102255.22;;;2.07;100.00
55301;BME280;58302;51.446;-2.000;2023-03-01T03:27:37;102252.22;;;2.19;100.00
55301;BME280;58302;51.446;-2.000;2023-03-01T03:30:04;102247.91;;;2.26;100.00
55301;BME280;58302;51.446;-2.000;2023-03-01T03:32:35;102242.69;;;2.32;100.00
55301;BME280;58302;51.446;-2.000;2023-03-01T03:35:01;102243.03;;;2.37;100.00
55301;BME280;58302;51.446;-2.000;2023-03-01T03:37:27;102240.84;;;2.41;100.00
55301;BME280;58302;51.446;-2.000;2023-03-01T03:40:11;102236.31;;;2.42;100.00
55301;BME280;58302;51.446;-2.000;2023-03-01T03:42:40;102236.34;;;2.50;100.00
55301;BME280;58302;51.446;-2.000;2023-03-01T03:45:06;102237.00;;;2.52;100.00
55301;BME280;58302;51.446;-2.000;2023-03-01T03:47:32;102236.66;;;2.55;100.00
55301;BME280;58302;51.446;-2.000;2023-03-01T03:49:58;102233.16;;;2.54;100.00
55301;BME280;58302;51.446;-2.000;2023-03-01T03:52:24;102235.31;;;2.51;100.00
55301;BME280;58302;51.446;-2.000;2023-03-01T03:54:49;102238.19;;;2.49;100.00
55301;BME280;58302;51.446;-2.000;2023-03-01T03:57:15;102236.16;;;2.51;100.00
55301;BME280;58302;51.446;-2.000;2023-03-01T03:59:41;102231.97;;;2.57;100.00
55301;BME280;58302;51.446;-2.000;2023-03-01T04:02:06;102225.75;;;2.64;100.00
55301;BME280;58302;51.446;-2.000;2023-03-01T04:04:34;102225.41;;;2.68;100.00
55301;BME280;58302;51.446;-2.000;2023-03-01T04:06:59;102220.19;;;2.74;100.00
55301;BME280;58302;51.446;-2.000;2023-03-01T04:09:25;102213.66;;;2.77;100.00
55301;BME280;58302;51.446;-2.000;2023-03-01T04:11:51;102210.13;;;2.68;100.00
55301;BME280;58302;51.446;-2.000;2023-03-01T04:14:17;102213.84;;;2.51;100.00
55301;BME280;58302;51.446;-2.000;2023-03-01T04:16:42;102222.59;;;2.36;100.00
55301;BME280;58302;51.446;-2.000;2023-03-01T04:19:08;102214.00;;;2.25;100.00
55301;BME280;58302;51.446;-2.000;2023-03-01T04:21:34;102220.56;;;2.22;100.00
55301;BME280;58302;51.446;-2.000;2023-03-01T04:24:01;102215.69;;;2.18;100.00
55301;BME280;58302;51.446;-2.000;2023-03-01T04:26:29;102215.38;;;2.21;100.00
55301;BME280;58302;51.446;-2.000;2023-03-01T04:28:54;102210.16;;;2.27;100.00
55301;BME280;58302;51.446;-2.000;2023-03-01T04:31:21;102208.66;;;2.33;100.00
55301;BME280;58302;51.446;-2.000;2023-03-01T04:33:53;102200.94;;;2.38;100.00
55301;BME280;58302;51.446;-2.000;2023-03-01T04:36:21;102201.59;;;2.40;100.00
55301;BME280;58302;51.446;-2.000;2023-03-01T04:38:46;102202.78;;;2.37;100.00
55301;BME280;58302;51.446;-2.000;2023-03-01T04:41:16;102209.84;;;2.38;100.00
55301;BME280;58302;51.446;-2.000;2023-03-01T04:43:42;102208.50;;;2.43;100.00
55301;BME280;58302;51.446;-2.000;2023-03-01T04:46:09;102218.22;;;2.44;100.00
55301;BME280;58302;51.446;-2.000;2023-03-01T04:48:36;102216.38;;;2.44;100.00
55301;BME280;58302;51.446;-2.000;2023-03-01T04:51:02;102210.50;;;2.49;100.00
55301;BME280;58302;51.446;-2.000;2023-03-01T04:53:29;102215.00;;;2.56;100.00
55301;BME280;58302;51.446;-2.000;2023-03-01T04:55:55;102200.91;;;2.62;100.00
55301;BME280;58302;51.446;-2.000;2023-03-01T04:58:25;102203.44;;;2.64;100.00
55301;BME280;58302;51.446;-2.000;2023-03-01T05:00:51;102207.63;;;2.67;100.00
55301;BME280;58302;51.446;-2.000;2023-03-01T05:03:17;102208.78;;;2.72;100.00
55301;BME280;58302;51.446;-2.000;2023-03-01T05:05:44;102211.31;;;2.74;100.00
55301;BME280;58302;51.446;-2.000;2023-03-01T05:08:10;102213.00;;;2.75;100.00
55301;BME280;58302;51.446;-2.000;2023-03-01T05:10:43;102206.25;;;2.79;100.00
55301;BME280;58302;51.446;-2.000;2023-03-01T05:13:09;102202.41;;;2.73;100.00
55301;BME280;58302;51.446;-2.000;2023-03-01T05:15:35;102194.69;;;2.78;100.00
55301;BME280;58302;51.446;-2.000;2023-03-01T05:18:01;102201.72;;;2.79;100.00
55301;BME280;58302;51.446;-2.000;2023-03-01T05:20:28;102192.16;;;2.85;100.00
55301;BME280;58302;51.446;-2.000;2023-03-01T05:22:56;102192.31;;;2.92;100.00
55301;BME280;58302;51.446;-2.000;2023-03-01T05:25:22;102192.97;;;2.94;100.00
55301;BME280;58302;51.446;-2.000;2023-03-01T05:27:48;102186.78;;;2.93;100.00
55301;BME280;58302;51.446;-2.000;2023-03-01T05:30:14;102181.88;;;2.97;100.00
55301;BME280;58302;51.446;-2.000;2023-03-01T05:32:40;102188.78;;;2.99;100.00
55301;BME280;58302;51.446;-2.000;2023-03-01T05:35:06;102186.91;;;3.00;100.00
55301;BME280;58302;51.446;-2.000;2023-03-01T05:37:32;102188.25;;;3.04;100.00
55301;BME280;58302;51.446;-2.000;2023-03-01T05:39:58;102190.75;;;3.05;100.00
55301;BME280;58302;51.446;-2.000;2023-03-01T05:42:23;102191.78;;;3.04;100.00
55301;BME280;58302;51.446;-2.000;2023-03-01T05:44:49;102187.41;;;3.03;100.00
55301;BME280;58302;51.446;-2.000;2023-03-01T05:47:15;102190.75;;;3.05;100.00
55301;BME280;58302;51.446;-2.000;2023-03-01T05:49:40;102196.97;;;3.06;100.00
55301;BME280;58302;51.446;-2.000;2023-03-01T05:52:07;102191.59;;;3.06;100.00
55301;BME280;58302;51.446;-2.000;2023-03-01T05:54:33;102179.19;;;3.05;100.00
55301;BME280;58302;51.446;-2.000;2023-03-01T05:56:58;102190.44;;;3.08;100.00
55301;BME280;58302;51.446;-2.000;2023-03-01T05:59:24;102185.22;;;3.07;100.00
55301;BME280;58302;51.446;-2.000;2023-03-01T06:01:50;102187.88;;;3.07;100.00
55301;BME280;58302;51.446;-2.000;2023-03-01T06:04:16;102188.41;;;3.10;100.00
55301;BME280;58302;51.446;-2.000;2023-03-01T06:06:42;102180.34;;;3.10;100.00
55301;BME280;58302;51.446;-2.000;2023-03-01T06:09:07;102192.09;;;3.09;100.00
55301;BME280;58302;51.446;-2.000;2023-03-01T06:11:35;102188.72;;;3.07;100.00
55301;BME280;58302;51.446;-2.000;2023-03-01T06:14:01;102192.44;;;3.06;100.00
55301;BME280;58302;51.446;-2.000;2023-03-01T06:16:27;102194.78;;;3.09;100.00
55301;BME280;58302;51.446;-2.000;2023-03-01T06:18:53;102188.72;;;3.07;100.00
55301;BME280;58302;51.446;-2.000;2023-03-01T06:21:18;102189.09;;;3.04;100.00
55301;BME280;58302;51.446;-2.000;2023-03-01T06:23:44;102185.91;;;3.01;100.00
55301;BME280;58302;51.446;-2.000;2023-03-01T06:26:10;102186.09;;;2.99;100.00
55301;BME280;58302;51.446;-2.000;2023-03-01T06:28:36;102194.31;;;2.98;100.00
55301;BME280;58302;51.446;-2.000;2023-03-01T06:31:01;102185.56;;;2.96;100.00
55301;BME280;58302;51.446;-2.000;2023-03-01T06:33:27;102183.91;;;2.95;100.00
55301;BME280;58302;51.446;-2.000;2023-03-01T06:35:56;102185.25;;;2.99;100.00
55301;BME280;58302;51.446;-2.000;2023-03-01T06:38:22;102193.50;;;2.97;100.00
55301;BME280;58302;51.446;-2.000;2023-03-01T06:40:51;102193.63;;;2.96;100.00
55301;BME280;58302;51.446;-2.000;2023-03-01T06:43:17;102197.84;;;2.98;100.00
55301;BME280;58302;51.446;-2.000;2023-03-01T06:45:43;102199.69;;;2.98;100.00
55301;BME280;58302;51.446;-2.000;2023-03-01T06:48:08;102204.88;;;2.99;100.00
55301;BME280;58302;51.446;-2.000;2023-03-01T06:50:34;102200.34;;;3.00;100.00
55301;BME280;58302;51.446;-2.000;2023-03-01T06:53:00;102197.84;;;2.98;100.00
55301;BME280;58302;51.446;-2.000;2023-03-01T06:55:27;102200.34;;;3.00;100.00
55301;BME280;58302;51.446;-2.000;2023-03-01T06:57:56;102202.00;;;3.01;100.00
55301;BME280;58302;51.446;-2.000;2023-03-01T07:00:22;102204.38;;;3.04;100.00
55301;BME280;58302;51.446;-2.000;2023-03-01T07:02:48;102199.84;;;3.04;100.00
55301;BME280;58302;51.446;-2.000;2023-03-01T07:05:14;102206.03;;;3.05;100.00
55301;BME280;58302;51.446;-2.000;2023-03-01T07:07:40;102207.88;;;3.04;100.00
55301;BME280;58302;51.446;-2.000;2023-03-01T07:10:06;102203.69;;;3.02;100.00
55301;BME280;58302;51.446;-2.000;2023-03-01T07:12:32;102204.38;;;3.04;100.00
55301;BME280;58302;51.446;-2.000;2023-03-01T07:14:58;102203.69;;;3.10;100.00
55301;BME280;58302;51.446;-2.000;2023-03-01T07:17:23;102203.50;;;3.11;100.00
55301;BME280;58302;51.446;-2.000;2023-03-01T07:19:49;102202.31;;;3.14;100.00
55301;BME280;58302;51.446;-2.000;2023-03-01T07:22:15;102211.03;;;3.16;100.00
55301;BME280;58302;51.446;-2.000;2023-03-01T07:24:41;102206.50;;;3.16;100.00
55301;BME280;58302;51.446;-2.000;2023-03-01T07:27:07;102209.84;;;3.18;100.00
55301;BME280;58302;51.446;-2.000;2023-03-01T07:29:33;102213.22;;;3.21;100.00
55301;BME280;58302;51.446;-2.000;2023-03-01T07:31:58;102211.03;;;3.24;100.00
55301;BME280;58302;51.446;-2.000;2023-03-01T07:34:24;102215.22;;;3.27;100.00
55301;BME280;58302;51.446;-2.000;2023-03-01T07:36:50;102221.78;;;3.24;100.00
55301;BME280;58302;51.446;-2.000;2023-03-01T07:39:16;102220.44;;;3.20;100.00
55301;BME280;58302;51.446;-2.000;2023-03-01T07:41:41;102217.25;;;3.16;100.00
55301;BME280;58302;51.446;-2.000;2023-03-01T07:44:07;102221.59;;;3.17;100.00
55301;BME280;58302;51.446;-2.000;2023-03-01T07:46:33;102232.84;;;3.21;100.00
55301;BME280;58302;51.446;-2.000;2023-03-01T07:48:58;102215.03;;;3.28;100.00
55301;BME280;58302;51.446;-2.000;2023-03-01T07:51:24;102218.03;;;3.33;100.00
55301;BME280;58302;51.446;-2.000;2023-03-01T07:53:50;102214.97;;;3.44;100.00
55301;BME280;58302;51.446;-2.000;2023-03-01T07:56:16;102226.38;;;3.47;100.00
55301;BME280;58302;51.446;-2.000;2023-03-01T07:58:44;102220.31;;;3.53;100.00
55301;BME280;58302;51.446;-2.000;2023-03-01T08:01:14;102222.63;;;3.56;100.00
55301;BME280;58302;51.446;-2.000;2023-03-01T08:03:40;102215.78;;;3.53;100.00
55301;BME280;58302;51.446;-2.000;2023-03-01T08:06:07;102218.28;;;3.55;100.00
55301;BME280;58302;51.446;-2.000;2023-03-01T08:08:33;102217.56;;;3.61;100.00
55301;BME280;58302;51.446;-2.000;2023-03-01T08:10:59;102210.03;;;3.56;100.00
55301;BME280;58302;51.446;-2.000;2023-03-01T08:13:26;102225.94;;;3.66;100.00
55301;BME280;58302;51.446;-2.000;2023-03-01T08:15:52;102219.84;;;3.80;100.00
55301;BME280;58302;51.446;-2.000;2023-03-01T08:18:18;102222.13;;;3.91;100.00
55301;BME280;58302;51.446;-2.000;2023-03-01T08:20:45;102221.03;;;4.01;100.00
55301;BME280;58302;51.446;-2.000;2023-03-01T08:23:11;102216.66;;;4.00;100.00
55301;BME280;58302;51.446;-2.000;2023-03-01T08:25:37;102213.63;;;4.03;100.00
55301;BME280;58302;51.446;-2.000;2023-03-01T08:28:03;102215.78;;;4.07;100.00
55301;BME280;58302;51.446;-2.000;2023-03-01T08:30:29;102221.94;;;4.16;100.00
55301;BME280;58302;51.446;-2.000;2023-03-01T08:32:54;102208.91;;;4.28;100.00
55301;BME280;58302;51.446;-2.000;2023-03-01T08:35:20;102212.84;;;4.17;100.00
55301;BME280;58302;51.446;-2.000;2023-03-01T08:37:46;102212.84;;;4.17;100.00
55301;BME280;58302;51.446;-2.000;2023-03-01T08:40:12;102209.50;;;4.15;100.00
55301;BME280;58302;51.446;-2.000;2023-03-01T08:42:39;102214.88;;;4.15;100.00
55301;BME280;58302;51.446;-2.000;2023-03-01T08:45:05;102211.84;;;4.18;100.00
55301;BME280;58302;51.446;-2.000;2023-03-01T08:47:31;102214.53;;;4.18;100.00
55301;BME280;58302;51.446;-2.000;2023-03-01T08:49:59;102214.84;;;4.23;100.00
55301;BME280;58302;51.446;-2.000;2023-03-01T08:52:25;102209.72;;;4.28;100.00
55301;BME280;58302;51.446;-2.000;2023-03-01T08:54:51;102206.34;;;4.34;100.00
55301;BME280;58302;51.446;-2.000;2023-03-01T08:57:17;102205.63;;;4.40;100.00
55301;BME280;58302;51.446;-2.000;2023-03-01T08:59:42;102206.94;;;4.59;100.00
55301;BME280;58302;51.446;-2.000;2023-03-01T09:02:14;102211.59;;;4.65;100.00
55301;BME280;58302;51.446;-2.000;2023-03-01T09:04:40;102216.41;;;4.55;100.00
55301;BME280;58302;51.446;-2.000;2023-03-01T09:07:06;102211.16;;;4.39;100.00
55301;BME280;58302;51.446;-2.000;2023-03-01T09:09:32;102202.97;;;4.32;100.00
55301;BME280;58302;51.446;-2.000;2023-03-01T09:11:57;102208.91;;;4.28;100.00
55301;BME280;58302;51.446;-2.000;2023-03-01T09:14:23;102208.44;;;4.24;100.00
55301;BME280;58302;51.446;-2.000;2023-03-01T09:16:49;102211.44;;;4.29;100.00
55301;BME280;58302;51.446;-2.000;2023-03-01T09:19:15;102212.38;;;4.36;100.00
55301;BME280;58302;51.446;-2.000;2023-03-01T09:21:41;102210.91;;;4.48;100.00
55301;BME280;58302;51.446;-2.000;2023-03-01T09:24:18;102217.81;;;4.66;100.00
55301;BME280;58302;51.446;-2.000;2023-03-01T09:26:43;102207.69;;;5.06;100.00
55301;BME280;58302;51.446;-2.000;2023-03-01T09:29:11;102211.19;;;5.50;100.00
55301;BME280;58302;51.446;-2.000;2023-03-01T09:31:37;102201.03;;;5.89;100.00
55301;BME280;58302;51.446;-2.000;2023-03-01T09:34:03;102199.13;;;6.47;100.00
55301;BME280;58302;51.446;-2.000;2023-03-01T09:36:29;102194.00;;;6.58;100.00
55301;BME280;58302;51.446;-2.000;2023-03-01T09:38:55;102198.13;;;6.26;100.00
55301;BME280;58302;51.446;-2.000;2023-03-01T09:44:03;102193.88;;;6.39;100.00
55301;BME280;58302;51.446;-2.000;2023-03-01T09:46:36;102187.59;;;6.59;100.00
55301;BME280;58302;51.446;-2.000;2023-03-01T09:49:05;102189.31;;;6.39;100.00
55301;BME280;58302;51.446;-2.000;2023-03-01T09:51:35;102192.44;;;6.43;100.00
55301;BME280;58302;51.446;-2.000;2023-03-01T09:54:02;102185.28;;;6.56;100.00
55301;BME280;58302;51.446;-2.000;2023-03-01T09:56:39;102188.19;;;6.83;100.00
55301;BME280;58302;51.446;-2.000;2023-03-01T10:01:33;102174.69;;;7.85;100.00
55301;BME280;58302;51.446;-2.000;2023-03-01T10:06:48;102162.94;;;8.53;100.00
55301;BME280;58302;51.446;-2.000;2023-03-01T10:09:20;102162.69;;;8.28;100.00
55301;BME280;58302;51.446;-2.000;2023-03-01T10:11:48;102162.69;;;8.08;100.00
55301;BME280;58302;51.446;-2.000;2023-03-01T10:14:29;102164.69;;;7.73;100.00
55301;BME280;58302;51.446;-2.000;2023-03-01T10:19:30;102156.47;;;6.98;100.00
55301;BME280;58302;51.446;-2.000;2023-03-01T10:21:57;102160.44;;;6.68;100.00
55301;BME280;58302;51.446;-2.000;2023-03-01T10:24:27;102146.22;;;6.31;100.00
55301;BME280;58302;51.446;-2.000;2023-03-01T10:26:57;102169.03;;;5.86;100.00
55301;BME280;58302;51.446;-2.000;2023-03-01T10:30:16;102167.28;;;5.42;100.00
55301;BME280;58302;51.446;-2.000;2023-03-01T10:32:13;102164.72;;;5.19;100.00
55301;BME280;58302;51.446;-2.000;2023-03-01T10:34:39;102151.63;;;5.16;100.00
55301;BME280;58302;51.446;-2.000;2023-03-01T10:37:12;102150.63;;;5.17;100.00
55301;BME280;58302;51.446;-2.000;2023-03-01T10:39:54;102153.09;;;5.33;100.00
55301;BME280;58302;51.446;-2.000;2023-03-01T10:42:22;102144.94;;;5.63;100.00
55301;BME280;58302;51.446;-2.000;2023-03-01T10:44:50;102151.53;;;5.96;100.00
55301;BME280;58302;51.446;-2.000;2023-03-01T10:47:18;102144.84;;;6.42;100.00
55301;BME280;58302;51.446;-2.000;2023-03-01T10:52:18;102144.53;;;6.51;100.00
55301;BME280;58302;51.446;-2.000;2023-03-01T10:54:52;102143.69;;;6.01;100.00
55301;BME280;58302;51.446;-2.000;2023-03-01T10:57:29;102150.16;;;5.86;100.00
55301;BME280;58302;51.446;-2.000;2023-03-01T11:00:30;102140.94;;;5.95;100.00
55301;BME280;58302;51.446;-2.000;2023-03-01T11:02:49;102134.34;;;6.25;100.00
55301;BME280;58302;51.446;-2.000;2023-03-01T11:05:20;102127.19;;;6.67;100.00
55301;BME280;58302;51.446;-2.000;2023-03-01T11:07:56;102121.94;;;6.94;100.00
55301;BME280;58302;51.446;-2.000;2023-03-01T11:10:23;102123.53;;;6.81;100.00
55301;BME280;58302;51.446;-2.000;2023-03-01T11:12:50;102123.53;;;6.53;100.00
55301;BME280;58302;51.446;-2.000;2023-03-01T11:15:23;102126.84;;;6.49;100.00
55301;BME280;58302;51.446;-2.000;2023-03-01T11:17:49;102122.09;;;6.51;100.00
55301;BME280;58302;51.446;-2.000;2023-03-01T11:20:21;102121.31;;;6.64;100.00
55301;BME280;58302;51.446;-2.000;2023-03-01T11:22:56;102120.09;;;7.01;100.00
55301;BME280;58302;51.446;-2.000;2023-03-01T11:25:28;102116.31;;;7.43;100.00
55301;BME280;58302;51.446;-2.000;2023-03-01T11:27:56;102108.88;;;7.58;100.00
55301;BME280;58302;51.446;-2.000;2023-03-01T11:30:25;102105.53;;;7.63;100.00
55301;BME280;58302;51.446;-2.000;2023-03-01T11:35:42;102089.13;;;7.64;100.00
55301;BME280;58302;51.446;-2.000;2023-03-01T11:40:43;102076.75;;;8.81;100.00
55301;BME280;58302;51.446;-2.000;2023-03-01T11:50:57;102067.03;;;8.34;100.00
55301;BME280;58302;51.446;-2.000;2023-03-01T11:53:42;102046.03;;;7.83;100.00
55301;BME280;58302;51.446;-2.000;2023-03-01T11:56:15;102059.00;;;7.20;100.00
55301;BME280;58302;51.446;-2.000;2023-03-01T11:58:45;102052.53;;;7.07;100.00
55301;BME280;58302;51.446;-2.000;2023-03-01T12:01:27;102057.91;;;6.94;100.00
55301;BME280;58302;51.446;-2.000;2023-03-01T12:11:39;102042.13;;;6.56;100.00
55301;BME280;58302;51.446;-2.000;2023-03-01T12:19:08;102038.19;;;6.24;100.00
55301;BME280;58302;51.446;-2.000;2023-03-01T12:27:32;102017.22;;;8.35;100.00
55301;BME280;58302;51.446;-2.000;2023-03-01T12:32:38;102005.31;;;9.39;100.00
55301;BME280;58302;51.446;-2.000;2023-03-01T12:40:20;102015.13;;;7.18;100.00
55301;BME280;58302;51.446;-2.000;2023-03-01T12:42:53;102019.56;;;6.71;100.00
55301;BME280;58302;51.446;-2.000;2023-03-01T12:52:44;102000.72;;;6.97;100.00
55301;BME280;58302;51.446;-2.000;2023-03-01T12:55:21;101987.03;;;7.12;100.00
55301;BME280;58302;51.446;-2.000;2023-03-01T12:57:53;101986.06;;;7.33;100.00
55301;BME280;58302;51.446;-2.000;2023-03-01T13:00:27;101973.38;;;7.53;100.00
55301;BME280;58302;51.446;-2.000;2023-03-01T13:05:52;101957.03;;;8.33;100.00
55301;BME280;58302;51.446;-2.000;2023-03-01T13:10:58;101950.44;;;8.67;100.00
55301;BME280;58302;51.446;-2.000;2023-03-01T13:13:26;101940.63;;;8.73;100.00
55301;BME280;58302;51.446;-2.000;2023-03-01T13:15:53;101937.03;;;8.79;100.00
55301;BME280;58302;51.446;-2.000;2023-03-01T13:30:57;101923.81;;;7.73;100.00
55301;BME280;58302;51.446;-2.000;2023-03-01T13:35:52;101908.03;;;7.17;100.00
55301;BME280;58302;51.446;-2.000;2023-03-01T13:41:02;101908.22;;;6.95;100.00
55301;BME280;58302;51.446;-2.000;2023-03-01T13:43:30;101904.91;;;7.06;100.00
55301;BME280;58302;51.446;-2.000;2023-03-01T13:45:56;101894.91;;;7.07;100.00
55301;BME280;58302;51.446;-2.000;2023-03-01T13:48:26;101893.69;;;7.09;100.00
55301;BME280;58302;51.446;-2.000;2023-03-01T13:50:58;101897.44;;;7.28;100.00
55301;BME280;58302;51.446;-2.000;2023-03-01T13:53:25;101888.09;;;7.31;100.00
55301;BME280;58302;51.446;-2.000;2023-03-01T13:55:52;101899.09;;;7.29;100.00
55301;BME280;58302;51.446;-2.000;2023-03-01T14:00:46;101878.28;;;7.43;100.00
55301;BME280;58302;51.446;-2.000;2023-03-01T14:03:13;101870.16;;;7.56;100.00
55301;BME280;58302;51.446;-2.000;2023-03-01T14:05:40;101869.91;;;7.78;100.00
55301;BME280;58302;51.446;-2.000;2023-03-01T14:08:20;101864.31;;;8.31;100.00
55301;BME280;58302;51.446;-2.000;2023-03-01T14:13:30;101852.16;;;9.10;100.00
55301;BME280;58302;51.446;-2.000;2023-03-01T14:16:04;101851.19;;;9.29;100.00
55301;BME280;58302;51.446;-2.000;2023-03-01T14:18:38;101844.97;;;9.22;100.00
55301;BME280;58302;51.446;-2.000;2023-03-01T14:21:07;101863.31;;;8.70;100.00
55301;BME280;58302;51.446;-2.000;2023-03-01T14:23:33;101859.38;;;8.14;100.00
55301;BME280;58302;51.446;-2.000;2023-03-01T14:26:01;101863.75;;;7.31;100.00